Time;durP1;ratioP1;P1;durP2;ratioP2;P2;SDS_P1;SDS_P2;PMS_P1;PMS_P2;Temp;Humidity;BMP_temperature;BMP_pressure;BME280_temperature;BME280_humidity;BME280_pressure;Samples;Min_cycle;Max_cycle;Signal;HPM_P1;HPM_P2
2023/07/15 00:00:37;;;;;;;4.40;2.30;;;23.20;50.70;;;;;;4985553;28;20069;-50
2023/07/15 00:03:03;;;;;;;4.10;3.03;;;23.30;50.80;;;;;;4985057;28;20465;-53
2023/07/15 00:05:35;;;;;;;5.97;2.78;;;23.30;50.80;;;;;;4986759;28;20034;-53
2023/07/15 00:08:01;;;;;;;3.40;2.30;;;23.30;50.80;;;;;;4983839;28;20034;-52
2023/07/15 00:10:27;;;;;;;2.55;2.33;;;23.30;50.90;;;;;;4973298;28;20163;-48
2023/07/15 00:12:53;;;;;;;2.55;2.15;;;23.30;50.90;;;;;;4977499;28;20061;-55
2023/07/15 00:15:18;;;;;;;5.60;2.50;;;23.30;51.00;;;;;;4986634;28;20038;-50
2023/07/15 00:17:44;;;;;;;3.70;2.17;;;23.30;51.10;;;;;;4986829;28;20108;-50
2023/07/15 00:20:14;;;;;;;4.32;2.50;;;23.30;51.00;;;;;;4985048;28;20117;-51
2023/07/15 00:22:41;;;;;;;3.55;2.45;;;23.30;51.10;;;;;;4985194;28;20042;-52
2023/07/15 00:25:17;;;;;;;4.55;2.33;;;23.20;51.20;;;;;;4985515;28;20035;-52
2023/07/15 00:27:43;;;;;;;2.67;2.20;;;23.20;51.10;;;;;;4984636;28;20123;-52
2023/07/15 00:30:13;;;;;;;4.70;2.53;;;23.20;51.30;;;;;;4984359;28;20062;-55
2023/07/15 00:32:45;;;;;;;2.53;2.20;;;23.30;51.40;;;;;;4983969;28;20031;-53
2023/07/15 00:35:24;;;;;;;3.95;1.98;;;23.20;51.30;;;;;;4984073;28;20045;-53
2023/07/15 00:37:50;;;;;;;2.60;1.98;;;23.20;51.40;;;;;;4985424;28;20031;-52
2023/07/15 00:40:16;;;;;;;3.45;2.28;;;23.20;51.50;;;;;;4985677;28;20027;-52
2023/07/15 00:42:51;;;;;;;4.63;2.53;;;23.20;51.60;;;;;;4965507;28;20042;-53
2023/07/15 00:45:17;;;;;;;2.53;1.95;;;23.20;51.60;;;;;;4982953;28;20046;-51
2023/07/15 00:47:50;;;;;;;2.97;2.63;;;23.20;51.60;;;;;;4983793;28;20926;-51
2023/07/15 00:50:15;;;;;;;2.17;1.95;;;23.20;51.60;;;;;;4984920;28;20125;-52
2023/07/15 00:52:41;;;;;;;3.35;2.40;;;23.20;51.60;;;;;;4974938;28;20544;-52
2023/07/15 00:55:08;;;;;;;2.78;2.17;;;23.20;51.70;;;;;;4965583;28;20038;-51
2023/07/15 00:57:34;;;;;;;3.40;2.53;;;23.20;51.60;;;;;;4965058;28;20046;-53
2023/07/15 01:00:00;;;;;;;4.35;2.25;;;23.20;51.60;;;;;;4965811;28;20034;-50
2023/07/15 01:02:26;;;;;;;2.35;1.90;;;23.20;51.60;;;;;;4965116;28;20106;-52
2023/07/15 01:04:52;;;;;;;3.53;2.28;;;23.20;51.70;;;;;;4968272;28;20038;-50
2023/07/15 01:07:17;;;;;;;2.30;1.95;;;23.20;51.80;;;;;;4971945;28;20078;-51
2023/07/15 01:09:44;;;;;;;6.25;2.38;;;23.20;51.80;;;;;;4977860;28;20138;-49
2023/07/15 01:12:10;;;;;;;3.08;2.47;;;23.20;51.80;;;;;;4980209;28;20109;-51
2023/07/15 01:14:36;;;;;;;2.55;2.20;;;23.20;51.80;;;;;;4986482;28;20036;-50
2023/07/15 01:17:02;;;;;;;2.80;2.38;;;23.20;51.90;;;;;;4993370;28;20095;-51
2023/07/15 01:19:27;;;;;;;2.67;2.00;;;23.10;51.80;;;;;;4999486;28;20035;-50
2023/07/15 01:21:53;;;;;;;2.50;2.00;;;23.20;51.80;;;;;;4995819;28;20618;-54
2023/07/15 01:24:21;;;;;;;3.42;2.35;;;23.10;51.80;;;;;;4988215;28;20170;-52
2023/07/15 01:26:47;;;;;;;6.95;2.20;;;23.10;51.80;;;;;;4994667;28;20049;-51
2023/07/15 01:29:13;;;;;;;3.65;2.20;;;23.10;51.90;;;;;;4987791;28;20073;-52
2023/07/15 01:31:41;;;;;;;2.95;1.83;;;23.10;52.00;;;;;;4994888;28;20052;-53
2023/07/15 01:34:07;;;;;;;2.53;1.95;;;23.10;52.00;;;;;;4987811;28;20035;-52
2023/07/15 01:36:33;;;;;;;2.70;2.50;;;23.10;52.10;;;;;;5002597;28;20029;-54
2023/07/15 01:38:59;;;;;;;2.40;2.00;;;23.10;52.20;;;;;;4986941;28;20115;-52
2023/07/15 01:41:24;;;;;;;2.80;2.42;;;23.10;52.20;;;;;;5002570;28;20033;-50
2023/07/15 01:43:50;;;;;;;4.20;2.40;;;23.10;52.20;;;;;;4996435;28;20735;-49
2023/07/15 01:46:15;;;;;;;2.50;2.30;;;23.10;52.20;;;;;;4987737;28;20038;-51
2023/07/15 01:48:41;;;;;;;2.45;2.17;;;23.10;52.30;;;;;;5002218;28;20049;-51
2023/07/15 01:51:06;;;;;;;4.00;2.38;;;23.10;52.30;;;;;;4999723;28;20046;-52
2023/07/15 01:53:32;;;;;;;3.72;2.33;;;23.10;52.30;;;;;;5004030;28;20036;-52
2023/07/15 01:55:57;;;;;;;2.72;2.40;;;23.10;52.30;;;;;;5003263;28;20037;-52
2023/07/15 01:58:23;;;;;;;3.38;2.00;;;23.10;52.30;;;;;;4998651;28;20050;-49
2023/07/15 02:00:48;;;;;;;3.38;2.55;;;23.10;52.30;;;;;;4992075;28;20049;-52
2023/07/15 02:03:15;;;;;;;2.42;2.22;;;23.10;52.20;;;;;;4994918;28;20349;-54
2023/07/15 02:05:41;;;;;;;2.92;2.10;;;23.10;52.20;;;;;;4986254;28;20035;-52
2023/07/15 02:08:06;;;;;;;2.95;2.30;;;23.10;52.20;;;;;;4995191;28;20251;-53
2023/07/15 02:10:32;;;;;;;3.22;2.20;;;23.10;52.10;;;;;;4994055;28;20395;-50
2023/07/15 02:12:58;;;;;;;2.28;1.88;;;23.10;52.20;;;;;;5001707;28;20041;-48
2023/07/15 02:15:23;;;;;;;2.80;1.90;;;23.10;52.00;;;;;;4993545;28;20510;-50
2023/07/15 02:17:49;;;;;;;3.17;2.38;;;23.10;52.10;;;;;;5000665;28;20034;-52
2023/07/15 02:20:15;;;;;;;2.42;2.22;;;23.10;52.00;;;;;;4987298;28;20034;-50
2023/07/15 02:22:41;;;;;;;3.17;2.22;;;23.10;52.00;;;;;;4994376;28;20026;-54
2023/07/15 02:25:07;;;;;;;4.97;2.22;;;23.10;52.00;;;;;;4994341;28;20034;-50
2023/07/15 02:27:32;;;;;;;2.17;1.98;;;23.10;52.00;;;;;;4993997;28;20030;-51
2023/07/15 02:29:58;;;;;;;3.03;1.90;;;23.10;52.00;;;;;;4987486;28;20026;-52
2023/07/15 02:32:39;;;;;;;3.42;2.65;;;23.10;52.20;;;;;;4986756;28;20533;-51
2023/07/15 02:35:09;;;;;;;3.58;2.15;;;23.10;52.20;;;;;;4987630;28;20088;-50
2023/07/15 02:37:35;;;;;;;2.20;1.83;;;23.10;52.20;;;;;;4991531;28;20109;-52
2023/07/15 02:40:04;;;;;;;2.80;2.20;;;23.10;52.20;;;;;;4981678;28;20030;-52
2023/07/15 02:42:33;;;;;;;2.00;1.80;;;23.10;52.20;;;;;;4982017;28;20041;-52
2023/07/15 02:44:59;;;;;;;3.28;2.42;;;23.10;52.20;;;;;;5019071;28;20041;-51
2023/07/15 02:47:25;;;;;;;2.88;2.28;;;23.10;52.30;;;;;;4992690;28;20185;-52
2023/07/15 02:49:51;;;;;;;4.15;2.40;;;23.10;52.40;;;;;;4992649;28;20143;-52
2023/07/15 02:52:16;;;;;;;3.35;2.10;;;23.10;52.40;;;;;;4991886;28;20109;-52
2023/07/15 02:54:42;;;;;;;3.05;2.20;;;23.10;52.50;;;;;;4986172;28;20030;-54
2023/07/15 02:57:07;;;;;;;2.60;1.85;;;23.10;52.50;;;;;;4985774;28;20022;-55
2023/07/15 02:59:34;;;;;;;2.72;1.90;;;23.10;52.50;;;;;;4998508;28;20121;-55
2023/07/15 03:02:00;;;;;;;3.80;2.13;;;23.10;52.50;;;;;;4980544;28;20034;-53
2023/07/15 03:04:26;;;;;;;3.83;2.10;;;23.10;52.50;;;;;;4995859;28;20092;-52
2023/07/15 03:06:52;;;;;;;4.53;2.33;;;23.10;52.60;;;;;;4997844;28;20230;-54
2023/07/15 03:09:18;;;;;;;2.97;2.17;;;23.10;52.50;;;;;;4996967;28;20026;-53
2023/07/15 03:11:43;;;;;;;3.30;2.55;;;23.00;52.50;;;;;;4987448;28;20030;-52
2023/07/15 03:14:09;;;;;;;3.50;2.20;;;23.10;52.60;;;;;;4990488;28;20369;-52
2023/07/15 03:16:34;;;;;;;2.63;2.33;;;23.10;52.60;;;;;;4993743;28;20080;-53
2023/07/15 03:19:00;;;;;;;3.63;2.33;;;23.00;52.60;;;;;;4988546;28;20495;-52
2023/07/15 03:21:25;;;;;;;2.78;2.05;;;23.10;52.60;;;;;;4983594;28;20548;-50
2023/07/15 03:23:51;;;;;;;2.00;1.80;;;23.10;52.60;;;;;;4974282;28;20039;-50
2023/07/15 03:26:16;;;;;;;2.22;2.00;;;23.10;52.70;;;;;;4978226;28;20030;-50
2023/07/15 03:28:42;;;;;;;2.38;1.95;;;23.10;52.70;;;;;;4972202;28;20054;-52
2023/07/15 03:31:07;;;;;;;2.63;2.17;;;23.00;52.70;;;;;;4978996;28;20073;-54
2023/07/15 03:33:33;;;;;;;2.67;2.08;;;23.10;52.80;;;;;;4987799;28;20789;-50
2023/07/15 03:35:59;;;;;;;3.40;2.30;;;23.10;52.80;;;;;;4984291;28;20043;-52
2023/07/15 03:38:25;;;;;;;3.45;2.20;;;23.00;52.80;;;;;;4992197;28;20273;-51
2023/07/15 03:40:53;;;;;;;3.75;2.75;;;23.10;52.90;;;;;;4997473;28;20034;-52
2023/07/15 03:43:18;;;;;;;2.88;1.95;;;23.10;53.00;;;;;;4981957;28;20026;-52
2023/07/15 03:45:44;;;;;;;2.88;1.90;;;23.10;53.00;;;;;;5001780;23;20039;-60
2023/07/15 03:48:09;;;;;;;2.38;2.13;;;23.10;53.00;;;;;;4986535;28;20030;-60
2023/07/15 03:50:35;;;;;;;2.72;2.38;;;23.10;53.10;;;;;;4985556;28;20375;-60
2023/07/15 03:53:01;;;;;;;3.15;2.10;;;23.10;53.10;;;;;;4984263;28;20120;-60
2023/07/15 03:55:26;;;;;;;2.10;1.83;;;23.10;53.20;;;;;;4979318;28;20030;-60
2023/07/15 03:57:52;;;;;;;2.38;1.80;;;23.10;53.20;;;;;;4975330;28;20488;-59
2023/07/15 04:00:18;;;;;;;5.43;2.00;;;23.10;53.30;;;;;;4979083;28;20129;-60
2023/07/15 04:02:49;;;;;;;2.50;2.03;;;23.10;53.30;;;;;;4973284;28;20093;-60
2023/07/15 04:05:15;;;;;;;4.10;2.08;;;23.10;53.40;;;;;;4976763;28;20065;-58
2023/07/15 04:07:40;;;;;;;2.92;1.80;;;23.10;53.40;;;;;;4978288;28;20050;-58
2023/07/15 04:10:06;;;;;;;2.55;1.95;;;23.10;53.40;;;;;;4972957;28;20085;-60
2023/07/15 04:12:32;;;;;;;2.75;2.20;;;23.10;53.50;;;;;;4978485;28;20041;-60
2023/07/15 04:14:58;;;;;;;1.88;1.67;;;23.10;53.50;;;;;;4979152;28;20628;-59
2023/07/15 04:17:23;;;;;;;2.58;1.90;;;23.10;53.70;;;;;;4973961;28;20035;-60
2023/07/15 04:19:49;;;;;;;2.10;1.90;;;23.10;53.70;;;;;;4982915;28;20076;-61
2023/07/15 04:22:14;;;;;;;2.97;2.08;;;23.10;53.70;;;;;;4982977;28;20027;-61
2023/07/15 04:24:40;;;;;;;2.20;1.90;;;23.10;53.80;;;;;;4981252;28;20045;-59
2023/07/15 04:27:05;;;;;;;3.65;2.13;;;23.10;53.90;;;;;;4973436;28;20247;-61
2023/07/15 04:29:31;;;;;;;2.60;1.77;;;23.10;53.90;;;;;;4970938;28;20030;-62
2023/07/15 04:31:57;;;;;;;3.20;2.55;;;23.10;54.00;;;;;;4980257;28;20126;-61
2023/07/15 04:34:22;;;;;;;2.55;2.00;;;23.10;54.00;;;;;;4983648;28;20454;-59
2023/07/15 04:36:48;;;;;;;2.38;1.95;;;23.10;54.00;;;;;;4972098;28;20452;-62
2023/07/15 04:39:14;;;;;;;2.88;2.00;;;23.10;54.10;;;;;;4978416;28;20026;-60
2023/07/15 04:41:39;;;;;;;3.00;1.88;;;23.10;54.00;;;;;;4971001;28;20023;-60
2023/07/15 04:44:05;;;;;;;2.10;1.83;;;23.20;54.20;;;;;;4977192;28;20070;-61
2023/07/15 04:46:32;;;;;;;2.53;1.75;;;23.20;54.00;;;;;;4970801;28;20092;-62
2023/07/15 04:48:58;;;;;;;2.60;1.50;;;23.20;53.80;;;;;;4981401;28;20039;-62
2023/07/15 04:51:23;;;;;;;3.78;2.30;;;23.20;53.80;;;;;;4974673;28;20034;-62
2023/07/15 04:53:49;;;;;;;2.08;1.88;;;23.30;53.70;;;;;;4979287;28;20027;-62
2023/07/15 04:56:15;;;;;;;1.90;1.70;;;23.40;53.80;;;;;;4980455;28;20026;-61
2023/07/15 04:58:40;;;;;;;4.57;2.25;;;23.40;53.60;;;;;;4971250;28;20066;-60
2023/07/15 05:01:06;;;;;;;2.10;1.90;;;23.40;53.60;;;;;;4974975;28;20536;-62
2023/07/15 05:03:33;;;;;;;2.15;1.52;;;23.40;53.50;;;;;;4977817;28;20026;-59
2023/07/15 05:05:58;;;;;;;2.40;2.00;;;23.40;53.30;;;;;;4972084;28;20587;-61
2023/07/15 05:08:24;;;;;;;2.33;2.10;;;23.40;53.30;;;;;;4971828;28;20031;-61
2023/07/15 05:10:50;;;;;;;2.13;1.92;;;23.50;53.30;;;;;;4978960;28;20041;-59
2023/07/15 05:13:16;;;;;;;2.22;1.90;;;23.50;53.30;;;;;;4977677;28;20033;-59
2023/07/15 05:15:42;;;;;;;2.08;1.67;;;23.50;53.30;;;;;;4978078;28;20031;-60
2023/07/15 05:18:08;;;;;;;1.70;1.58;;;23.50;53.20;;;;;;4976681;28;20034;-55
2023/07/15 05:20:34;;;;;;;2.55;2.00;;;23.50;53.30;;;;;;4975365;28;20023;-61
2023/07/15 05:23:01;;;;;;;1.77;1.48;;;23.50;53.30;;;;;;4982190;28;20030;-62
2023/07/15 05:25:26;;;;;;;2.60;1.60;;;23.60;53.30;;;;;;4974693;28;20097;-61
2023/07/15 05:27:52;;;;;;;2.03;1.67;;;23.60;53.20;;;;;;4978292;28;20035;-62
2023/07/15 05:30:19;;;;;;;2.05;1.60;;;23.60;53.30;;;;;;4979713;28;20041;-62
2023/07/15 05:32:44;;;;;;;2.38;1.63;;;23.60;53.10;;;;;;4982153;28;20401;-62
2023/07/15 05:35:10;;;;;;;2.20;1.60;;;23.60;52.90;;;;;;4971593;28;20104;-61
2023/07/15 05:37:36;;;;;;;2.28;1.55;;;23.60;52.90;;;;;;4980772;28;20042;-60
2023/07/15 05:40:08;;;;;;;1.88;1.52;;;23.60;53.10;;;;;;4970200;28;20031;-59
2023/07/15 05:42:33;;;;;;;2.08;1.73;;;23.60;53.10;;;;;;4971035;28;20034;-61
2023/07/15 05:44:58;;;;;;;2.97;1.77;;;23.70;53.10;;;;;;4976079;28;20026;-62
2023/07/15 05:47:24;;;;;;;2.08;1.85;;;23.70;52.90;;;;;;4974206;28;20751;-62
2023/07/15 05:49:49;;;;;;;1.90;1.70;;;23.70;52.90;;;;;;4981781;28;20046;-63
2023/07/15 05:52:15;;;;;;;2.58;1.88;;;23.70;52.80;;;;;;4967621;28;20034;-62
2023/07/15 05:54:40;;;;;;;2.35;1.70;;;23.70;52.70;;;;;;4982446;28;20065;-60
2023/07/15 05:57:06;;;;;;;2.67;2.00;;;23.70;52.60;;;;;;4976164;28;20105;-59
2023/07/15 05:59:32;;;;;;;1.60;1.45;;;23.70;52.60;;;;;;4975326;28;20038;-60
2023/07/15 06:01:57;;;;;;;2.75;1.90;;;23.70;52.50;;;;;;4972700;28;20069;-59
2023/07/15 06:04:23;;;;;;;1.98;1.60;;;23.70;52.50;;;;;;4974955;28;20115;-59
2023/07/15 06:06:48;;;;;;;2.92;2.25;;;23.80;52.40;;;;;;4975949;28;20046;-59
2023/07/15 06:09:14;;;;;;;1.80;1.67;;;23.70;52.40;;;;;;4977086;28;20038;-60
2023/07/15 06:11:39;;;;;;;2.75;1.70;;;23.80;52.40;;;;;;4973763;28;20126;-59
2023/07/15 06:14:05;;;;;;;1.65;1.55;;;23.80;52.30;;;;;;4977046;28;20653;-58
2023/07/15 06:16:31;;;;;;;1.92;1.50;;;23.80;52.30;;;;;;4981150;28;20094;-60
2023/07/15 06:18:57;;;;;;;2.17;1.77;;;23.80;52.30;;;;;;4978504;28;20031;-58
2023/07/15 06:21:22;;;;;;;2.20;2.00;;;23.80;52.40;;;;;;4981760;28;20534;-58
2023/07/15 06:23:48;;;;;;;3.20;1.73;;;23.90;52.50;;;;;;4981254;28;20034;-59
2023/07/15 06:26:13;;;;;;;1.75;1.65;;;23.90;52.40;;;;;;4976583;28;21611;-60
2023/07/15 06:28:39;;;;;;;1.70;1.60;;;23.90;52.50;;;;;;4984614;28;20041;-60
2023/07/15 06:31:06;;;;;;;2.53;1.80;;;23.90;52.40;;;;;;4977484;28;20548;-59
2023/07/15 06:33:33;;;;;;;3.95;1.75;;;23.90;52.50;;;;;;4975506;28;20030;-61
2023/07/15 06:35:59;;;;;;;2.55;1.60;;;23.90;52.50;;;;;;4979210;28;20045;-61
2023/07/15 06:38:27;;;;;;;1.98;1.77;;;23.90;52.50;;;;;;4977730;28;20376;-62
2023/07/15 06:40:53;;;;;;;2.88;1.70;;;23.90;52.60;;;;;;4977449;28;20042;-61
2023/07/15 06:43:19;;;;;;;2.70;2.15;;;23.90;52.50;;;;;;4980963;28;21171;-59
2023/07/15 06:45:44;;;;;;;2.22;1.70;;;23.90;52.50;;;;;;4973326;28;20039;-62
2023/07/15 06:48:10;;;;;;;2.58;2.38;;;23.90;52.50;;;;;;4984333;28;20039;-60
2023/07/15 06:50:36;;;;;;;2.85;2.25;;;23.90;52.70;;;;;;4984260;28;20030;-60
2023/07/15 06:53:02;;;;;;;3.65;2.28;;;24.00;52.90;;;;;;4973511;28;20117;-61
2023/07/15 06:55:28;;;;;;;3.25;2.72;;;23.90;52.70;;;;;;4984191;28;20134;-61
2023/07/15 06:57:53;;;;;;;2.95;2.38;;;24.00;52.80;;;;;;4980704;28;20412;-62
2023/07/15 07:00:19;;;;;;;3.10;1.90;;;24.00;52.90;;;;;;4972473;28;20039;-62
2023/07/15 07:02:45;;;;;;;3.58;3.00;;;24.00;53.10;;;;;;4981282;28;20030;-61
2023/07/15 07:05:10;;;;;;;3.33;2.30;;;24.00;53.10;;;;;;4981861;28;20042;-59
2023/07/15 07:07:36;;;;;;;3.40;2.03;;;24.00;53.00;;;;;;4976655;28;20258;-61
2023/07/15 07:10:01;;;;;;;4.65;2.45;;;24.00;53.00;;;;;;4976530;28;20117;-61
2023/07/15 07:12:27;;;;;;;4.22;2.22;;;24.00;53.00;;;;;;4973907;28;20046;-62
2023/07/15 07:14:52;;;;;;;2.60;2.33;;;24.00;53.00;;;;;;4975349;28;20498;-61
2023/07/15 07:17:18;;;;;;;5.47;2.50;;;24.00;53.10;;;;;;4983612;28;20026;-61
2023/07/15 07:19:46;;;;;;;3.28;2.47;;;24.00;53.10;;;;;;4980964;28;20034;-61
2023/07/15 07:22:11;;;;;;;3.03;2.60;;;24.00;53.20;;;;;;4979190;28;20485;-61
2023/07/15 07:24:37;;;;;;;4.78;3.00;;;24.00;53.20;;;;;;4971213;28;20045;-61
2023/07/15 07:27:02;;;;;;;3.05;2.30;;;24.00;53.30;;;;;;4970753;28;20046;-62
2023/07/15 07:29:28;;;;;;;4.15;2.42;;;24.10;53.40;;;;;;4969101;28;20043;-62
2023/07/15 07:31:53;;;;;;;2.50;2.30;;;24.10;53.40;;;;;;4977564;28;20039;-61
2023/07/15 07:34:19;;;;;;;3.03;2.42;;;24.10;53.60;;;;;;4978651;28;20069;-62
2023/07/15 07:36:45;;;;;;;2.50;2.20;;;24.10;53.60;;;;;;4973932;28;20027;-61
2023/07/15 07:39:12;;;;;;;2.38;2.08;;;24.00;53.40;;;;;;4976357;28;20030;-60
2023/07/15 07:41:38;;;;;;;2.47;2.13;;;24.10;53.50;;;;;;4976357;28;20031;-61
2023/07/15 07:44:04;;;;;;;5.70;2.35;;;24.10;53.60;;;;;;4975959;28;20487;-61
2023/07/15 07:46:29;;;;;;;2.50;2.22;;;24.10;53.70;;;;;;4980117;28;20073;-62
2023/07/15 07:48:55;;;;;;;4.45;2.58;;;24.10;53.70;;;;;;4970792;28;20034;-61
2023/07/15 07:51:20;;;;;;;3.03;2.20;;;24.10;53.70;;;;;;4978180;28;20033;-62
2023/07/15 07:53:46;;;;;;;2.60;2.38;;;24.20;53.80;;;;;;4973443;28;20072;-61
2023/07/15 07:56:11;;;;;;;5.32;2.10;;;24.10;53.80;;;;;;4979842;28;20495;-61
2023/07/15 07:58:40;;;;;;;2.90;2.40;;;24.10;53.80;;;;;;4981789;28;20026;-61
2023/07/15 08:01:06;;;;;;;4.82;2.38;;;24.20;53.80;;;;;;4983715;28;20441;-61
2023/07/15 08:03:32;;;;;;;5.05;2.45;;;24.10;53.80;;;;;;4980873;28;20054;-61
2023/07/15 08:05:58;;;;;;;2.03;1.85;;;24.20;53.80;;;;;;4983418;28;20722;-60
2023/07/15 08:08:23;;;;;;;3.80;2.30;;;24.20;53.70;;;;;;4977564;28;20491;-60
2023/07/15 08:10:49;;;;;;;2.42;2.13;;;24.20;53.70;;;;;;4975774;28;20031;-61
2023/07/15 08:13:14;;;;;;;2.45;2.25;;;24.10;53.70;;;;;;4980522;28;20084;-60
2023/07/15 08:15:40;;;;;;;2.90;2.22;;;24.10;53.60;;;;;;4972609;28;20039;-60
2023/07/15 08:18:06;;;;;;;4.28;2.10;;;24.20;53.60;;;;;;4981255;28;20035;-62
2023/07/15 08:20:32;;;;;;;2.58;2.03;;;24.20;53.60;;;;;;4977211;28;20451;-62
2023/07/15 08:22:59;;;;;;;3.50;2.42;;;24.20;53.60;;;;;;4974497;28;20039;-62
2023/07/15 08:25:25;;;;;;;2.45;2.15;;;24.20;53.50;;;;;;4974803;28;20026;-60
2023/07/15 08:27:51;;;;;;;2.53;1.95;;;24.20;53.50;;;;;;4980017;28;20092;-60
2023/07/15 08:30:18;;;;;;;3.45;2.40;;;24.20;53.40;;;;;;4983059;28;20058;-62
2023/07/15 08:32:44;;;;;;;2.40;2.17;;;24.20;53.40;;;;;;4981540;28;20070;-62
2023/07/15 08:35:10;;;;;;;2.60;2.40;;;24.20;53.40;;;;;;4970757;28;20074;-56
2023/07/15 08:37:35;;;;;;;2.63;2.13;;;24.30;53.40;;;;;;4970557;28;20027;-61
2023/07/15 08:40:01;;;;;;;3.08;2.22;;;24.20;53.30;;;;;;4971813;28;20038;-61
2023/07/15 08:42:27;;;;;;;3.03;2.10;;;24.20;53.40;;;;;;4977067;28;20432;-61
2023/07/15 08:44:53;;;;;;;4.70;2.30;;;24.20;53.30;;;;;;4975906;28;20404;-62
2023/07/15 08:47:20;;;;;;;2.47;2.28;;;24.30;53.30;;;;;;4973036;28;20026;-61
2023/07/15 08:49:51;;;;;;;6.15;2.80;;;24.30;53.30;;;;;;4975784;28;20026;-59
2023/07/15 08:52:22;;;;;;;3.17;2.47;;;24.30;53.20;;;;;;4972864;28;20027;-61
2023/07/15 08:54:51;;;;;;;5.70;2.55;;;24.30;53.20;;;;;;4975792;28;20120;-61
2023/07/15 08:57:22;;;;;;;3.45;2.38;;;24.30;53.20;;;;;;4969229;28;20027;-60
2023/07/15 08:59:56;;;;;;;2.78;2.10;;;24.30;53.10;;;;;;4982980;28;20042;-61
2023/07/15 09:02:24;;;;;;;4.80;2.47;;;24.30;53.10;;;;;;4969187;28;20040;-58
2023/07/15 09:04:50;;;;;;;3.58;2.20;;;24.30;53.00;;;;;;4970492;28;20551;-60
2023/07/15 09:07:16;;;;;;;3.45;2.08;;;24.30;53.00;;;;;;4973985;28;20067;-60
2023/07/15 09:09:42;;;;;;;2.50;2.30;;;24.40;53.00;;;;;;4978667;28;20033;-61
2023/07/15 09:12:10;;;;;;;4.40;2.45;;;24.40;53.00;;;;;;4967868;28;20027;-61
2023/07/15 09:14:43;;;;;;;2.45;2.10;;;24.40;52.90;;;;;;4979617;28;20423;-61
2023/07/15 09:17:13;;;;;;;2.65;2.17;;;24.40;52.80;;;;;;4964710;28;20032;-61
2023/07/15 09:19:39;;;;;;;3.20;2.50;;;24.40;52.80;;;;;;4976971;28;20166;-61
2023/07/15 09:22:08;;;;;;;3.50;2.20;;;24.40;52.60;;;;;;4975625;28;20106;-60
2023/07/15 09:24:36;;;;;;;3.45;2.28;;;24.40;52.60;;;;;;4979592;28;20038;-61
2023/07/15 09:27:03;;;;;;;3.20;2.25;;;24.40;52.40;;;;;;4976004;28;20026;-59
2023/07/15 09:29:29;;;;;;;2.60;2.05;;;24.40;52.40;;;;;;4980081;28;20023;-61
2023/07/15 09:31:55;;;;;;;2.50;2.30;;;24.50;52.30;;;;;;4973869;28;20034;-59
2023/07/15 09:34:25;;;;;;;4.35;2.30;;;24.50;52.40;;;;;;4977062;28;20106;-59
2023/07/15 09:36:51;;;;;;;3.00;2.03;;;24.50;52.50;;;;;;4983156;28;20061;-61
2023/07/15 09:39:22;;;;;;;4.50;2.33;;;24.50;52.40;;;;;;4984876;28;20023;-61
2023/07/15 09:42:07;;;;;;;4.50;2.22;;;24.50;53.00;;;;;;4975886;28;20035;-61
2023/07/15 09:44:40;;;;;;;3.23;2.10;;;24.50;52.30;;;;;;4982718;28;20041;-59
2023/07/15 09:47:07;;;;;;;2.85;2.00;;;24.50;52.30;;;;;;4980083;28;20109;-59
2023/07/15 09:49:34;;;;;;;2.53;2.28;;;24.50;52.30;;;;;;4979313;28;20022;-59
2023/07/15 09:52:00;;;;;;;2.45;2.22;;;24.60;52.30;;;;;;4978516;28;20030;-60
2023/07/15 09:54:28;;;;;;;2.55;2.20;;;24.50;52.20;;;;;;4983237;28;20026;-60
2023/07/15 09:56:59;;;;;;;2.92;1.98;;;24.50;52.30;;;;;;4972657;28;20126;-59
2023/07/15 09:59:29;;;;;;;3.17;2.30;;;24.60;52.10;;;;;;4979677;28;20484;-60
2023/07/15 10:02:10;;;;;;;3.42;1.50;;;24.60;52.10;;;;;;4975587;28;20037;-58
2023/07/15 10:04:45;;;;;;;3.80;1.80;;;24.60;52.20;;;;;;4984807;28;20042;-59
2023/07/15 10:07:11;;;;;;;4.07;2.10;;;24.60;52.20;;;;;;4982765;28;20027;-60
2023/07/15 10:09:37;;;;;;;2.83;1.90;;;24.70;52.20;;;;;;4976619;28;20030;-60
2023/07/15 10:12:04;;;;;;;4.07;2.08;;;24.70;52.10;;;;;;4973339;28;20507;-59
2023/07/15 10:14:31;;;;;;;2.05;1.80;;;24.70;52.10;;;;;;4975866;28;20038;-60
2023/07/15 10:17:10;;;;;;;3.75;1.58;;;24.70;52.10;;;;;;4981656;28;20404;-59
2023/07/15 10:19:45;;;;;;;4.80;1.83;;;24.70;52.10;;;;;;4976243;28;20018;-60
2023/07/15 10:22:12;;;;;;;3.17;1.90;;;24.70;52.10;;;;;;4964803;28;20137;-59
2023/07/15 10:24:52;;;;;;;2.45;2.00;;;24.70;52.10;;;;;;4982142;28;20034;-59
2023/07/15 10:27:17;;;;;;;1.55;1.40;;;24.70;52.10;;;;;;4975403;28;20106;-59
2023/07/15 10:29:43;;;;;;;2.67;1.70;;;24.70;52.00;;;;;;4982968;28;20506;-58
2023/07/15 10:32:13;;;;;;;2.35;1.50;;;24.70;52.00;;;;;;4975448;28;20031;-59
2023/07/15 10:34:50;;;;;;;2.13;1.88;;;24.70;51.90;;;;;;4981865;28;20295;-59
2023/07/15 10:37:17;;;;;;;2.50;1.52;;;24.70;51.90;;;;;;4974238;28;20102;-60
2023/07/15 10:39:45;;;;;;;2.88;1.58;;;24.80;51.80;;;;;;4982251;28;20030;-58
2023/07/15 10:42:16;;;;;;;3.15;1.98;;;24.80;51.70;;;;;;4965993;28;20085;-60
2023/07/15 10:44:44;;;;;;;1.77;1.42;;;24.70;51.60;;;;;;4968158;28;20042;-58
2023/07/15 10:47:10;;;;;;;1.98;1.50;;;24.80;51.70;;;;;;4967595;28;20529;-59
2023/07/15 10:49:36;;;;;;;2.95;1.42;;;24.80;51.70;;;;;;4975927;28;20027;-59
2023/07/15 10:52:04;;;;;;;1.65;1.55;;;24.80;51.60;;;;;;4972332;28;20038;-60
2023/07/15 10:54:31;;;;;;;1.75;1.23;;;24.80;51.60;;;;;;4980942;28;20097;-59
2023/07/15 10:56:57;;;;;;;2.15;1.70;;;24.90;51.60;;;;;;4970707;28;20038;-59
2023/07/15 10:59:31;;;;;;;3.88;1.70;;;24.90;51.50;;;;;;4976977;28;20027;-60
2023/07/15 11:01:58;;;;;;;2.17;1.38;;;24.90;51.50;;;;;;4973699;28;20090;-59
2023/07/15 11:04:24;;;;;;;1.58;1.42;;;24.90;51.50;;;;;;4979227;28;20185;-60
2023/07/15 11:06:51;;;;;;;3.03;1.23;;;24.90;51.40;;;;;;4965922;28;20603;-59
2023/07/15 11:09:21;;;;;;;1.80;1.70;;;25.00;51.50;;;;;;4973187;28;20041;-59
2023/07/15 11:11:48;;;;;;;1.63;1.40;;;24.90;51.30;;;;;;4971627;28;20061;-59
2023/07/15 11:14:24;;;;;;;1.75;1.42;;;25.00;51.30;;;;;;4973107;28;20033;-59
2023/07/15 11:16:51;;;;;;;2.45;1.65;;;24.90;51.20;;;;;;4972892;28;20508;-58
2023/07/15 11:19:17;;;;;;;3.90;1.40;;;25.00;51.30;;;;;;4980635;28;20030;-60
2023/07/15 11:21:43;;;;;;;2.63;1.60;;;25.00;51.10;;;;;;4973399;28;20511;-59
2023/07/15 11:24:14;;;;;;;2.88;1.48;;;25.00;51.00;;;;;;4980140;28;20030;-59
2023/07/15 11:26:40;;;;;;;2.38;1.27;;;24.90;51.10;;;;;;4954722;28;20039;-59
2023/07/15 11:29:13;;;;;;;3.55;1.48;;;24.90;51.10;;;;;;4971008;28;20042;-59
2023/07/15 11:31:47;;;;;;;2.38;1.50;;;25.00;51.10;;;;;;4972436;28;20093;-59
2023/07/15 11:34:15;;;;;;;1.63;1.42;;;25.00;50.80;;;;;;4982967;28;20029;-60
2023/07/15 11:36:41;;;;;;;2.50;1.45;;;25.00;50.60;;;;;;4975627;28;20377;-59
2023/07/15 11:39:07;;;;;;;2.45;1.27;;;25.00;50.70;;;;;;4984639;28;20037;-59
2023/07/15 11:41:34;;;;;;;1.52;1.23;;;25.00;50.50;;;;;;4974980;28;20172;-59
2023/07/15 11:44:00;;;;;;;2.30;1.50;;;25.00;50.50;;;;;;4977587;28;20161;-59
2023/07/15 11:46:27;;;;;;;2.65;1.75;;;25.10;50.20;;;;;;4974610;28;20260;-59
2023/07/15 11:48:56;;;;;;;2.00;1.33;;;25.10;50.10;;;;;;4978906;28;20038;-59
2023/07/15 11:51:21;;;;;;;2.17;1.42;;;25.10;50.50;;;;;;4965465;28;20452;-60
2023/07/15 11:53:47;;;;;;;4.05;1.50;;;25.00;50.10;;;;;;4975463;28;20046;-60
2023/07/15 11:56:32;;;;;;;3.88;1.83;;;25.10;50.20;;;;;;4977720;28;20031;-60
2023/07/15 11:58:57;;;;;;;2.43;2.10;;;25.10;50.90;;;;;;4977639;28;20034;-59
2023/07/15 12:01:25;;;;;;;1.67;1.58;;;25.10;50.10;;;;;;4984377;28;20535;-59
2023/07/15 12:03:50;;;;;;;4.68;1.63;;;25.10;49.90;;;;;;4983663;28;20039;-59
2023/07/15 12:06:18;;;;;;;3.75;1.60;;;25.10;49.90;;;;;;4984196;28;20048;-58
2023/07/15 12:09:12;;;;;;;7.38;2.00;;;25.10;50.00;;;;;;4966191;28;20111;-59
2023/07/15 12:11:38;;;;;;;2.30;1.52;;;25.10;49.20;;;;;;4974173;28;20031;-59
2023/07/15 12:14:06;;;;;;;2.13;1.92;;;25.10;49.50;;;;;;4977741;28;20223;-58
2023/07/15 12:16:33;;;;;;;2.80;2.03;;;25.10;49.30;;;;;;4974941;28;20027;-59
2023/07/15 12:19:00;;;;;;;1.98;1.50;;;25.20;49.30;;;;;;4969560;28;20038;-59
2023/07/15 12:21:26;;;;;;;4.30;1.30;;;25.20;49.20;;;;;;4977045;28;20027;-60
2023/07/15 12:23:52;;;;;;;3.83;1.48;;;25.20;48.90;;;;;;4981120;28;20419;-60
2023/07/15 12:26:18;;;;;;;2.38;1.73;;;25.30;48.80;;;;;;4966351;28;20063;-59
2023/07/15 12:28:44;;;;;;;2.75;1.63;;;25.20;48.70;;;;;;4975024;28;20088;-59
2023/07/15 12:31:09;;;;;;;2.92;1.75;;;25.30;48.70;;;;;;4984436;28;20034;-60
2023/07/15 12:33:35;;;;;;;2.58;1.40;;;25.30;48.80;;;;;;4983364;28;20034;-59
2023/07/15 12:36:02;;;;;;;1.67;1.50;;;25.30;48.70;;;;;;4983523;28;20034;-59
2023/07/15 12:38:27;;;;;;;2.50;2.03;;;25.30;48.90;;;;;;4973906;28;20030;-59
2023/07/15 12:40:53;;;;;;;2.20;1.67;;;25.30;49.00;;;;;;4981010;28;20033;-59
2023/07/15 12:43:19;;;;;;;2.78;1.55;;;25.30;48.80;;;;;;4960591;28;20023;-59
2023/07/15 12:45:44;;;;;;;2.10;1.52;;;25.40;48.80;;;;;;4972594;28;20117;-59